createdAt,value
2022-09-16T00:00:06.267Z,99351.13
2022-09-16T00:01:14.882Z,99361.16
2022-09-16T00:02:18.025Z,99354.41
2022-09-16T00:03:20.540Z,99366.22
2022-09-16T00:04:22.042Z,99350.66
2022-09-16T00:05:25.733Z,99365.84
2022-09-16T00:06:29.613Z,99342.13
2022-09-16T00:07:31.458Z,99373.25
2022-09-16T00:08:33.341Z,99365.94
2022-09-16T00:09:38.853Z,99370.25
2022-09-16T00:10:41.397Z,99371.81
2022-09-16T00:11:43.397Z,99368.00
2022-09-16T00:12:46.668Z,99365.91
2022-09-16T00:13:48.566Z,99364.31
2022-09-16T00:14:55.259Z,99368.38
2022-09-16T00:15:57.633Z,99371.81
2022-09-16T00:16:59.441Z,99363.94
2022-09-16T00:18:01.139Z,99344.63
2022-09-16T00:19:03.588Z,99369.28
2022-09-16T00:20:08.331Z,99366.66
2022-09-16T00:21:11.378Z,99363.09
2022-09-16T00:22:13.974Z,99357.06
2022-09-16T00:23:16.802Z,99367.22
2022-09-16T00:24:18.449Z,99342.44
2022-09-16T00:25:21.405Z,99359.41
2022-09-16T00:26:24.039Z,99360.47
2022-09-16T00:27:26.088Z,99358.78
2022-09-16T00:28:29.057Z,99363.09
2022-09-16T00:29:30.657Z,99354.38
2022-09-16T00:30:32.573Z,99363.28
2022-09-16T00:31:37.278Z,99365.06
2022-09-16T00:32:40.099Z,99352.31
2022-09-16T00:33:42.186Z,99348.28
2022-09-16T00:34:43.745Z,99348.47
2022-09-16T00:35:46.154Z,99356.84
2022-09-16T00:36:48.061Z,99355.25
2022-09-16T00:37:50.402Z,99358.63
2022-09-16T00:38:55.342Z,99323.06
2022-09-16T00:39:57.579Z,99357.75
2022-09-16T00:40:59.997Z,99346.50
2022-09-16T00:42:03.992Z,99344.91
2022-09-16T00:43:05.954Z,99353.72
2022-09-16T00:44:46.352Z,99360.38
2022-09-16T00:46:02.275Z,99348.47
2022-09-16T00:47:04.218Z,99358.63
2022-09-16T00:48:09.616Z,99338.25
2022-09-16T00:49:29.291Z,99344.16
2022-09-16T00:50:41.986Z,99331.94
2022-09-16T00:51:48.042Z,99330.66
2022-09-16T00:52:51.330Z,99316.75
2022-09-16T00:53:58.164Z,99346.69
2022-09-16T00:55:04.027Z,99342.28
2022-09-16T00:56:09.870Z,99334.88
2022-09-16T00:57:14.615Z,99339.09
2022-09-16T00:58:30.526Z,99341.44
2022-09-16T00:59:36.623Z,99349.25
2022-09-16T01:00:38.405Z,99343.13
2022-09-16T01:01:43.143Z,99346.09
2022-09-16T01:02:47.385Z,99355.59
2022-09-16T01:03:54.478Z,99331.38
2022-09-16T01:05:06.151Z,99355.22
2022-09-16T01:06:10.776Z,99349.56
2022-09-16T01:07:12.566Z,99351.63
2022-09-16T01:08:15.950Z,99358.75
2022-09-16T01:09:23.512Z,99342.41
2022-09-16T01:10:26.278Z,99351.50
2022-09-16T01:11:29.047Z,99341.84
2022-09-16T01:12:33.283Z,99333.59
2022-09-16T01:13:35.366Z,99345.19
2022-09-16T01:14:55.578Z,99352.91
2022-09-16T01:16:23.101Z,99353.53
2022-09-16T01:17:37.736Z,99358.31
2022-09-16T01:18:49.049Z,99357.16
2022-09-16T01:20:10.306Z,99348.44
2022-09-16T01:21:17.087Z,99353.72
2022-09-16T01:22:40.805Z,99357.84
2022-09-16T01:24:19.988Z,99362.25
2022-09-16T01:25:37.515Z,99363.19
2022-09-16T01:27:21.371Z,99354.66
2022-09-16T01:28:52.230Z,99356.41
2022-09-16T01:30:21.954Z,99356.53
2022-09-16T01:31:35.634Z,99354.75
2022-09-16T01:32:53.589Z,99357.28
2022-09-16T01:34:14.669Z,99344.06
2022-09-16T01:35:26.157Z,99351.81
2022-09-16T01:36:43.083Z,99350.91
2022-09-16T01:38:08.893Z,99351.44
2022-09-16T01:39:37.545Z,99349.56
2022-09-16T01:40:55.267Z,99347.78
2022-09-16T01:42:07.503Z,99343.44
2022-09-16T01:43:25.768Z,99347.03
2022-09-16T01:44:36.937Z,99343.56
2022-09-16T01:45:43.011Z,99347.22
2022-09-16T01:47:03.039Z,99338.00
2022-09-16T01:48:09.480Z,99343.28
2022-09-16T01:49:33.285Z,99347.41
2022-09-16T01:51:05.675Z,99354.53
2022-09-16T01:52:15.900Z,99342.41
2022-09-16T01:53:26.885Z,99341.59
2022-09-16T01:54:42.682Z,99332.50
2022-09-16T01:55:59.491Z,99340.19
2022-09-16T01:57:13.758Z,99337.22
2022-09-16T01:58:20.301Z,99336.38
2022-09-16T01:59:41.202Z,99347.66
2022-09-16T02:00:46.929Z,99327.09
2022-09-16T02:02:02.022Z,99345.19
2022-09-16T02:03:12.140Z,99339.19
2022-09-16T02:04:20.055Z,99336.75
2022-09-16T02:05:37.473Z,99345.50
2022-09-16T02:06:40.535Z,99342.88
2022-09-16T02:07:49.639Z,99345.50
2022-09-16T02:08:57.074Z,99345.41
2022-09-16T02:10:06.649Z,99341.19
2022-09-16T02:11:13.921Z,99338.28
2022-09-16T02:12:24.362Z,99354.88
2022-09-16T02:13:34.125Z,99343.72
2022-09-16T02:14:43.772Z,99352.06
2022-09-16T02:15:49.943Z,99349.25
2022-09-16T02:16:57.604Z,99345.75
2022-09-16T02:18:07.100Z,99337.69
2022-09-16T02:19:36.648Z,99346.41
2022-09-16T02:20:43.017Z,99322.69
2022-09-16T02:21:46.901Z,99343.69
2022-09-16T02:22:55.069Z,99346.19
2022-09-16T02:24:03.416Z,99324.09
2022-09-16T02:25:08.817Z,99339.75
2022-09-16T02:26:16.064Z,99345.16
2022-09-16T02:27:22.046Z,99350.81
2022-09-16T02:28:29.534Z,99348.53
2022-09-16T02:29:41.205Z,99342.34
2022-09-16T02:30:46.056Z,99339.72
2022-09-16T02:31:55.577Z,99359.72
2022-09-16T02:33:04.034Z,99334.09
2022-09-16T02:34:45.446Z,99351.16
2022-09-16T02:35:52.524Z,99346.94
2022-09-16T02:36:57.241Z,99352.00
2022-09-16T02:38:09.806Z,99347.69
2022-09-16T02:39:16.073Z,99332.41
2022-09-16T02:40:25.883Z,99347.78
2022-09-16T02:41:29.557Z,99336.81
2022-09-16T02:42:32.229Z,99336.72
2022-09-16T02:43:33.759Z,99343.69
2022-09-16T02:44:35.543Z,99345.91
2022-09-16T02:45:50.608Z,99350.31
2022-09-16T02:46:58.219Z,99353.78
2022-09-16T02:48:27.655Z,99354.94
2022-09-16T02:49:44.464Z,99337.00
2022-09-16T02:50:59.591Z,99350.53
2022-09-16T02:52:24.248Z,99341.91
2022-09-16T02:53:52.963Z,99354.75
2022-09-16T02:55:00.705Z,99345.03
2022-09-16T02:56:06.991Z,99332.50
2022-09-16T02:57:09.526Z,99350.41
2022-09-16T02:58:12.627Z,99336.63
2022-09-16T02:59:15.520Z,99329.69
2022-09-16T03:00:18.521Z,99340.00
2022-09-16T03:01:23.500Z,99332.41
2022-09-16T03:02:26.232Z,99328.63
2022-09-16T03:03:28.308Z,99337.56
2022-09-16T03:04:30.985Z,99339.66
2022-09-16T03:05:32.942Z,99331.88
2022-09-16T03:06:36.473Z,99298.13
2022-09-16T03:07:40.641Z,99331.75
2022-09-16T03:08:44.604Z,99335.97
2022-09-16T03:09:49.505Z,99319.75
2022-09-16T03:10:53.876Z,99338.53
2022-09-16T03:12:20.746Z,99335.78
2022-09-16T03:13:31.942Z,99334.00
2022-09-16T03:15:10.114Z,99334.81
2022-09-16T03:16:21.002Z,99330.53
2022-09-16T03:17:40.983Z,99335.78
2022-09-16T03:19:16.651Z,99334.94
2022-09-16T03:20:40.543Z,99332.97
2022-09-16T03:22:06.528Z,99327.59
2022-09-16T03:23:19.226Z,99325.06
2022-09-16T03:24:50.239Z,99319.81
2022-09-16T03:26:03.238Z,99319.03
2022-09-16T03:27:11.925Z,99316.41
2022-09-16T03:28:21.279Z,99305.47
2022-09-16T03:29:45.697Z,99315.03
2022-09-16T03:30:56.155Z,99314.09
2022-09-16T03:32:10.515Z,99319.81
2022-09-16T03:33:35.606Z,99313.16
2022-09-16T03:34:44.876Z,99326.13
2022-09-16T03:35:49.582Z,99323.19
2022-09-16T03:36:57.426Z,99317.19
2022-09-16T03:38:01.348Z,99311.72
2022-09-16T03:39:04.266Z,99322.81
2022-09-16T03:40:10.977Z,99320.00
2022-09-16T03:41:15.108Z,99317.13
2022-09-16T03:42:17.781Z,99317.91
2022-09-16T03:43:19.413Z,99322.31
2022-09-16T03:44:21.374Z,99304.97
2022-09-16T03:45:23.716Z,99311.44
2022-09-16T03:46:26.507Z,99306.25
2022-09-16T03:47:28.924Z,99324.41
2022-09-16T03:48:30.521Z,99304.56
2022-09-16T03:49:32.243Z,99310.41
2022-09-16T03:50:34.114Z,99323.25
2022-09-16T03:51:37.658Z,99323.47
2022-09-16T03:52:39.561Z,99327.03
2022-09-16T03:53:41.304Z,99322.81
2022-09-16T03:54:43.171Z,99322.41
2022-09-16T03:55:44.875Z,99318.22
2022-09-16T03:56:47.010Z,99316.94
2022-09-16T03:57:48.550Z,99302.31
2022-09-16T03:58:50.513Z,99309.25
2022-09-16T03:59:52.001Z,99319.38
2022-09-16T04:00:54.949Z,99303.91
2022-09-16T04:01:56.909Z,99315.28
2022-09-16T04:03:00.228Z,99303.25
2022-09-16T04:04:02.081Z,99302.69
2022-09-16T04:05:06.900Z,99317.69
2022-09-16T04:06:09.644Z,99314.31
2022-09-16T04:07:11.265Z,99318.53
2022-09-16T04:08:15.187Z,99301.56
2022-09-16T04:09:17.114Z,99317.78
2022-09-16T04:10:19.529Z,99306.41
2022-09-16T04:11:21.450Z,99311.56
2022-09-16T04:12:23.079Z,99314.19
2022-09-16T04:13:25.339Z,99324.84
2022-09-16T04:14:27.266Z,99305.97
2022-09-16T04:15:29.108Z,99312.09
2022-09-16T04:16:31.830Z,99318.47
2022-09-16T04:17:34.404Z,99309.94
2022-09-16T04:18:36.206Z,99295.59
2022-09-16T04:19:37.986Z,99315.28
2022-09-16T04:20:40.050Z,99308.34
2022-09-16T04:21:43.092Z,99317.19
2022-09-16T04:22:44.863Z,99295.78
2022-09-16T04:23:46.592Z,99285.69
2022-09-16T04:24:48.670Z,99282.31
2022-09-16T04:26:01.615Z,99286.50
2022-09-16T04:27:03.655Z,99294.94
2022-09-16T04:28:07.268Z,99298.53
2022-09-16T04:29:09.102Z,99281.53
2022-09-16T04:30:11.773Z,99291.00
2022-09-16T04:31:15.712Z,99302.19
2022-09-16T04:32:17.809Z,99291.53
2022-09-16T04:33:20.250Z,99295.66
2022-09-16T04:34:21.900Z,99292.16
2022-09-16T04:35:25.285Z,99282.38
2022-09-16T04:36:26.876Z,99298.81
2022-09-16T04:37:32.123Z,99289.13
2022-09-16T04:38:35.152Z,99294.84
2022-09-16T04:39:36.964Z,99304.84
2022-09-16T04:40:41.643Z,99298.56
2022-09-16T04:41:43.365Z,99310.03
2022-09-16T04:42:51.499Z,99306.38
2022-09-16T04:43:58.547Z,99315.06
2022-09-16T04:45:00.665Z,99306.00
2022-09-16T04:46:02.429Z,99300.63
2022-09-16T04:47:05.014Z,99289.38
2022-09-16T04:48:08.357Z,99306.38
2022-09-16T04:49:12.738Z,99306.25
2022-09-16T04:50:14.444Z,99290.88
2022-09-16T04:51:17.752Z,99288.63
2022-09-16T04:52:19.394Z,99312.09
2022-09-16T04:53:30.255Z,99307.03
2022-09-16T04:54:31.881Z,99311.97
2022-09-16T04:55:33.911Z,99319.03
2022-09-16T04:56:35.785Z,99312.44
2022-09-16T04:57:38.616Z,99316.03
2022-09-16T04:58:40.222Z,99305.06
2022-09-16T04:59:44.118Z,99310.78
2022-09-16T05:00:45.930Z,99305.31
2022-09-16T05:01:47.906Z,99308.72
2022-09-16T05:02:50.278Z,99312.94
2022-09-16T05:03:55.077Z,99313.69
2022-09-16T05:04:56.806Z,99300.72
2022-09-16T05:06:15.943Z,99310.84
2022-09-16T05:07:20.494Z,99311.69
2022-09-16T05:08:22.151Z,99306.19
2022-09-16T05:09:25.946Z,99295.66
2022-09-16T05:10:28.857Z,99321.78
2022-09-16T05:11:36.904Z,99301.09
2022-09-16T05:12:39.364Z,99308.72
2022-09-16T05:13:42.074Z,99317.25
2022-09-16T05:14:43.609Z,99305.28
2022-09-16T05:15:50.401Z,99301.75
2022-09-16T05:16:54.875Z,99308.63
2022-09-16T05:17:57.222Z,99268.94
2022-09-16T05:19:00.837Z,99259.09
2022-09-16T05:20:03.769Z,99321.50
2022-09-16T05:21:08.568Z,99316.13
2022-09-16T05:22:10.328Z,99307.59
2022-09-16T05:23:12.132Z,99300.66
2022-09-16T05:24:15.050Z,99285.91
2022-09-16T05:25:17.032Z,99305.94
2022-09-16T05:26:25.822Z,99309.22
2022-09-16T05:27:31.474Z,99318.78
2022-09-16T05:28:34.654Z,99312.59
2022-09-16T05:29:36.463Z,99306.66
2022-09-16T05:30:39.209Z,99329.22
2022-09-16T05:31:43.305Z,99320.69
2022-09-16T05:32:46.320Z,99317.19
2022-09-16T05:33:58.885Z,99324.97
2022-09-16T05:35:01.435Z,99312.97
2022-09-16T05:36:15.520Z,99317.72
2022-09-16T05:37:17.931Z,99323.72
2022-09-16T05:38:19.747Z,99335.19
2022-09-16T05:39:24.496Z,99319.09
2022-09-16T05:40:29.537Z,99308.97
2022-09-16T05:41:31.413Z,99305.19
2022-09-16T05:42:34.348Z,99320.78
2022-09-16T05:43:36.690Z,99324.56
2022-09-16T05:44:41.391Z,99325.69
2022-09-16T05:45:43.933Z,99300.22
2022-09-16T05:46:45.525Z,99313.28
2022-09-16T05:47:50.492Z,99329.41
2022-09-16T05:48:55.638Z,99326.78
2022-09-16T05:49:58.073Z,99299.69
2022-09-16T05:51:03.216Z,99315.28
2022-09-16T05:52:07.774Z,99331.88
2022-09-16T05:53:09.800Z,99331.56
2022-09-16T05:54:11.703Z,99317.97
2022-09-16T05:55:17.200Z,99297.19
2022-09-16T05:56:22.068Z,99335.47
2022-09-16T05:57:24.027Z,99332.91
2022-09-16T05:58:27.929Z,99334.63
2022-09-16T05:59:29.635Z,99322.81
2022-09-16T06:00:31.270Z,99344.94
2022-09-16T06:01:35.590Z,99317.94
2022-09-16T06:02:37.894Z,99340.81
2022-09-16T06:03:41.814Z,99341.31
2022-09-16T06:04:43.551Z,99326.50
2022-09-16T06:05:45.989Z,99356.53
2022-09-16T06:06:48.086Z,99337.28
2022-09-16T06:07:51.484Z,99317.22
2022-09-16T06:08:58.363Z,99343.28
2022-09-16T06:10:02.234Z,99325.00
2022-09-16T06:11:07.802Z,99344.97
2022-09-16T06:12:10.543Z,99339.00
2022-09-16T06:13:12.163Z,99346.69
2022-09-16T06:14:15.238Z,99341.09
2022-09-16T06:15:17.113Z,99338.38
2022-09-16T06:16:19.151Z,99360.72
2022-09-16T06:17:21.788Z,99356.16
2022-09-16T06:18:26.352Z,99354.09
2022-09-16T06:19:28.113Z,99354.84
2022-09-16T06:20:29.793Z,99348.19
2022-09-16T06:21:32.833Z,99367.41
2022-09-16T06:22:35.646Z,99361.69
2022-09-16T06:23:39.547Z,99373.13
2022-09-16T06:24:42.915Z,99356.72
2022-09-16T06:25:48.359Z,99314.31
2022-09-16T06:26:50.722Z,99354.97
2022-09-16T06:27:52.408Z,99363.91
2022-09-16T06:28:54.582Z,99301.94
2022-09-16T06:29:57.380Z,99354.88
2022-09-16T06:31:22.234Z,99365.31
2022-09-16T06:32:24.045Z,99380.06
2022-09-16T06:33:26.181Z,99372.63
2022-09-16T06:34:27.928Z,99363.44
2022-09-16T06:35:30.380Z,99388.03
2022-09-16T06:36:42.776Z,99326.69
2022-09-16T06:37:47.201Z,99374.81
2022-09-16T06:38:49.684Z,99361.84
2022-09-16T06:39:51.277Z,99373.22
2022-09-16T06:40:54.655Z,99358.97
2022-09-16T06:41:56.297Z,99323.31
2022-09-16T06:43:00.175Z,99327.19
2022-09-16T06:44:02.809Z,99349.16
2022-09-16T06:45:07.074Z,99394.94
2022-09-16T06:46:17.341Z,99367.66
2022-09-16T06:47:19.179Z,99363.25
2022-09-16T06:48:20.858Z,99376.63
2022-09-16T06:49:25.377Z,99380.97
2022-09-16T06:50:29.836Z,99379.25
2022-09-16T06:51:31.757Z,99367.44
2022-09-16T06:52:33.748Z,99377.94
2022-09-16T06:53:36.709Z,99374.28
2022-09-16T06:54:38.507Z,99346.06
2022-09-16T06:55:40.635Z,99377.13
2022-09-16T06:56:42.205Z,99374.41
2022-09-16T06:57:44.128Z,99390.34
2022-09-16T06:58:48.382Z,99372.69
2022-09-16T06:59:50.559Z,99381.63
2022-09-16T07:00:52.555Z,99376.72
2022-09-16T07:01:55.099Z,99375.53
2022-09-16T07:02:57.011Z,99376.84
2022-09-16T07:04:02.400Z,99384.72
2022-09-16T07:05:04.126Z,99388.47
2022-09-16T07:06:06.283Z,99359.28
2022-09-16T07:07:10.331Z,99385.28
2022-09-16T07:08:12.480Z,99385.63
2022-09-16T07:09:15.169Z,99378.78
2022-09-16T07:10:20.150Z,99390.34
2022-09-16T07:11:24.318Z,99378.06
2022-09-16T07:12:27.744Z,99371.19
2022-09-16T07:13:30.966Z,99363.03
2022-09-16T07:14:34.823Z,99385.00
2022-09-16T07:15:50.932Z,99373.28
2022-09-16T07:16:59.673Z,99379.81
2022-09-16T07:18:01.800Z,99370.84
2022-09-16T07:19:03.857Z,99375.53
2022-09-16T07:20:06.320Z,99371.03
2022-09-16T07:21:12.289Z,99373.94
2022-09-16T07:22:13.866Z,99383.03
2022-09-16T07:23:15.444Z,99395.59
2022-09-16T07:24:17.404Z,99357.88
2022-09-16T07:25:19.299Z,99390.78
2022-09-16T07:26:26.326Z,99377.66
2022-09-16T07:27:27.917Z,99370.34
2022-09-16T07:28:29.643Z,99371.88
2022-09-16T07:29:31.525Z,99368.19
2022-09-16T07:30:34.467Z,99387.88
2022-09-16T07:31:37.575Z,99372.22
2022-09-16T07:32:39.446Z,99374.56
2022-09-16T07:33:46.718Z,99394.00
2022-09-16T07:34:48.579Z,99400.75
2022-09-16T07:35:50.472Z,99398.97
2022-09-16T07:36:53.005Z,99401.22
2022-09-16T07:37:55.090Z,99398.38
2022-09-16T07:38:58.941Z,99403.28
2022-09-16T07:40:00.616Z,99403.28
2022-09-16T07:41:29.900Z,99410.44
2022-09-16T07:42:32.211Z,99415.69
2022-09-16T07:43:35.566Z,99406.94
2022-09-16T07:44:38.583Z,99391.75
2022-09-16T07:45:40.332Z,99395.13
2022-09-16T07:46:42.602Z,99395.41
2022-09-16T07:47:44.240Z,99390.50
2022-09-16T07:48:48.778Z,99401.47
2022-09-16T07:49:55.963Z,99402.81
2022-09-16T07:51:02.447Z,99401.69
2022-09-16T07:52:04.266Z,99400.66
2022-09-16T07:53:06.068Z,99400.38
2022-09-16T07:54:09.931Z,99404.59
2022-09-16T07:55:12.460Z,99410.19
2022-09-16T07:56:17.006Z,99393.38
2022-09-16T07:57:18.554Z,99407.72
2022-09-16T07:58:21.239Z,99405.59
2022-09-16T07:59:22.969Z,99404.09
2022-09-16T08:00:26.942Z,99409.28
2022-09-16T08:01:29.174Z,99417.25
2022-09-16T08:02:30.832Z,99404.94
2022-09-16T08:03:37.850Z,99412.06
2022-09-16T08:04:39.608Z,99416.19
2022-09-16T08:05:43.256Z,99413.94
2022-09-16T08:06:45.633Z,99406.31
2022-09-16T08:07:47.516Z,99415.63
2022-09-16T08:08:52.687Z,99412.94
2022-09-16T08:09:54.631Z,99422.13
2022-09-16T08:10:57.411Z,99423.84
2022-09-16T08:12:02.984Z,99420.13
2022-09-16T08:13:06.561Z,99424.59
2022-09-16T08:14:08.837Z,99419.78
2022-09-16T08:15:12.431Z,99426.31
2022-09-16T08:16:16.919Z,99426.41
2022-09-16T08:17:20.271Z,99419.16
2022-09-16T08:18:24.298Z,99409.97
2022-09-16T08:19:27.058Z,99423.16
2022-09-16T08:20:28.659Z,99422.41
2022-09-16T08:21:30.396Z,99426.94
2022-09-16T08:22:32.171Z,99427.53
2022-09-16T08:23:35.673Z,99427.22
2022-09-16T08:24:38.438Z,99434.06
2022-09-16T08:25:41.369Z,99435.59
2022-09-16T08:26:42.960Z,99425.00
2022-09-16T08:27:44.896Z,99421.06
2022-09-16T08:29:09.295Z,99442.19
2022-09-16T08:30:14.156Z,99441.44
2022-09-16T08:31:18.175Z,99433.75
2022-09-16T08:32:20.789Z,99436.47
2022-09-16T08:33:25.901Z,99430.25
2022-09-16T08:34:27.970Z,99444.53
2022-09-16T08:35:29.597Z,99434.75
2022-09-16T08:36:33.213Z,99432.97
2022-09-16T08:37:35.729Z,99429.16
2022-09-16T08:38:38.465Z,99431.78
2022-09-16T08:39:40.883Z,99434.78
2022-09-16T08:40:45.748Z,99439.22
2022-09-16T08:42:06.563Z,99419.75
2022-09-16T08:43:28.941Z,99434.84
2022-09-16T08:44:42.428Z,99440.19
2022-09-16T08:46:10.289Z,99435.72
2022-09-16T08:47:31.532Z,99441.16
2022-09-16T08:48:46.466Z,99444.94
2022-09-16T08:49:51.175Z,99441.34
2022-09-16T08:50:53.720Z,99431.84
2022-09-16T08:51:58.165Z,99442.75
2022-09-16T08:53:18.012Z,99451.41
2022-09-16T08:54:31.928Z,99452.13
2022-09-16T08:55:47.449Z,99445.56
2022-09-16T08:56:49.761Z,99432.31
2022-09-16T08:58:10.285Z,99424.69
2022-09-16T08:59:18.327Z,99429.88
2022-09-16T09:00:20.827Z,99434.44
2022-09-16T09:01:36.589Z,99441.00
2022-09-16T09:02:59.260Z,99438.50
2022-09-16T09:04:02.055Z,99422.63
2022-09-16T09:05:14.096Z,99444.28
2022-09-16T09:06:31.697Z,99437.97
2022-09-16T09:08:09.146Z,99448.06
2022-09-16T09:09:45.358Z,99434.41
2022-09-16T09:11:02.211Z,99441.13
2022-09-16T09:12:13.063Z,99448.28
2022-09-16T09:13:37.602Z,99448.78
2022-09-16T09:15:14.278Z,99439.47
2022-09-16T09:16:39.270Z,99442.16
2022-09-16T09:17:56.216Z,99443.16
2022-09-16T09:19:24.158Z,99435.69
2022-09-16T09:20:41.591Z,99436.13
2022-09-16T09:22:14.292Z,99438.03
2022-09-16T09:23:25.395Z,99436.00
2022-09-16T09:24:56.840Z,99436.41
2022-09-16T09:26:32.957Z,99445.78
2022-09-16T09:27:51.280Z,99441.25
2022-09-16T09:28:56.128Z,99440.47
2022-09-16T09:30:11.288Z,99440.91
2022-09-16T09:31:39.399Z,99441.00
2022-09-16T09:32:50.122Z,99446.78
2022-09-16T09:33:56.177Z,99434.84
2022-09-16T09:35:13.146Z,99446.41
2022-09-16T09:36:18.992Z,99446.00
2022-09-16T09:37:42.665Z,99449.59
2022-09-16T09:38:53.239Z,99450.94
2022-09-16T09:40:09.042Z,99449.44
2022-09-16T09:41:19.048Z,99449.44
2022-09-16T09:42:43.751Z,99433.13
2022-09-16T09:44:21.754Z,99437.97
2022-09-16T09:45:31.950Z,99445.53
2022-09-16T09:46:41.592Z,99433.53
2022-09-16T09:47:54.040Z,99443.19
2022-09-16T09:49:22.157Z,99452.44
2022-09-16T09:50:35.160Z,99451.91
2022-09-16T09:51:43.031Z,99438.78
2022-09-16T09:52:54.303Z,99433.97
2022-09-16T09:54:03.730Z,99441.00
2022-09-16T09:55:16.536Z,99453.00
2022-09-16T09:56:18.669Z,99449.44
2022-09-16T09:57:40.997Z,99440.03
2022-09-16T09:58:54.551Z,99454.31
2022-09-16T10:00:02.737Z,99453.69
2022-09-16T10:01:05.141Z,99455.59
2022-09-16T10:02:17.311Z,99455.84
2022-09-16T10:03:19.802Z,99423.06
2022-09-16T10:04:21.677Z,99444.56
2022-09-16T10:05:28.663Z,99451.06
2022-09-16T10:06:35.266Z,99447.41
2022-09-16T10:07:39.139Z,99448.25
2022-09-16T10:08:50.771Z,99462.72
2022-09-16T10:10:03.781Z,99453.97
2022-09-16T10:11:21.447Z,99457.25
2022-09-16T10:12:41.435Z,99467.78
2022-09-16T10:13:51.968Z,99466.75
2022-09-16T10:14:53.687Z,99462.97
2022-09-16T10:16:10.818Z,99460.34
2022-09-16T10:17:17.496Z,99426.66
2022-09-16T10:18:30.591Z,99447.31
2022-09-16T10:19:38.764Z,99474.06
2022-09-16T10:20:45.214Z,99462.50
2022-09-16T10:21:51.721Z,99457.47
2022-09-16T10:23:21.567Z,99466.75
2022-09-16T10:24:30.878Z,99464.56
2022-09-16T10:25:37.073Z,99463.06
2022-09-16T10:26:41.118Z,99457.91
2022-09-16T10:28:00.578Z,99450.66
2022-09-16T10:29:15.769Z,99468.22
2022-09-16T10:30:20.014Z,99468.03
2022-09-16T10:31:24.271Z,99451.22
2022-09-16T10:32:26.635Z,99464.56
2022-09-16T10:33:30.246Z,99457.22
2022-09-16T10:34:40.288Z,99453.75
2022-09-16T10:35:55.194Z,99450.94
2022-09-16T10:37:04.599Z,99455.81
2022-09-16T10:38:08.876Z,99457.13
2022-09-16T10:39:24.393Z,99451.41
2022-09-16T10:40:27.780Z,99459.97
2022-09-16T10:41:35.591Z,99450.00
2022-09-16T10:42:37.307Z,99449.44
2022-09-16T10:43:40.281Z,99438.44
2022-09-16T10:44:42.904Z,99449.44
2022-09-16T10:45:49.616Z,99433.75
2022-09-16T10:46:54.992Z,99461.91
2022-09-16T10:48:12.588Z,99442.44
2022-09-16T10:49:26.091Z,99455.47
2022-09-16T10:50:28.200Z,99452.94
2022-09-16T10:51:31.428Z,99446.28
2022-09-16T10:52:45.065Z,99449.91
2022-09-16T10:53:53.638Z,99456.13
2022-09-16T10:54:56.312Z,99456.31
2022-09-16T10:56:00.653Z,99454.84
2022-09-16T10:57:02.519Z,99450.25
2022-09-16T10:58:09.661Z,99438.81
2022-09-16T10:59:13.754Z,99463.81
2022-09-16T11:00:25.457Z,99461.00
2022-09-16T11:01:51.620Z,99460.69
2022-09-16T11:03:05.532Z,99460.84
2022-09-16T11:04:37.813Z,99449.88
2022-09-16T11:05:53.511Z,99456.88
2022-09-16T11:07:20.801Z,99455.63
2022-09-16T11:09:03.874Z,99457.84
2022-09-16T11:10:27.413Z,99459.94
2022-09-16T11:12:21.420Z,99457.84
2022-09-16T11:13:53.675Z,99447.00
2022-09-16T11:15:07.958Z,99453.13
2022-09-16T11:16:49.184Z,99447.94
2022-09-16T11:18:50.700Z,99461.38
2022-09-16T11:20:21.882Z,99456.94
2022-09-16T11:22:11.767Z,99462.91
2022-09-16T11:23:34.845Z,99463.81
2022-09-16T11:24:43.642Z,99463.50
2022-09-16T11:25:54.354Z,99466.78
2022-09-16T11:27:29.775Z,99465.16
2022-09-16T11:28:41.363Z,99455.16
2022-09-16T11:30:15.326Z,99462.59
2022-09-16T11:31:17.201Z,99467.66
2022-09-16T11:32:38.496Z,99461.53
2022-09-16T11:33:50.873Z,99466.28
2022-09-16T11:35:27.655Z,99460.41
2022-09-16T11:36:38.003Z,99458.16
2022-09-16T11:37:50.053Z,99444.44
2022-09-16T11:39:22.640Z,99463.94
2022-09-16T11:41:11.038Z,99446.28
2022-09-16T11:42:24.621Z,99462.25
2022-09-16T11:43:38.112Z,99459.22
2022-09-16T11:44:56.525Z,99460.84
2022-09-16T11:46:08.609Z,99451.75
2022-09-16T11:47:27.221Z,99464.13
2022-09-16T11:49:06.020Z,99467.34
2022-09-16T11:50:21.299Z,99456.25
2022-09-16T11:52:00.587Z,99464.31
2022-09-16T11:53:18.620Z,99463.97
2022-09-16T11:54:33.431Z,99468.09
2022-09-16T11:55:58.270Z,99465.88
2022-09-16T11:57:04.834Z,99466.00
2022-09-16T11:58:32.677Z,99470.75
2022-09-16T11:59:45.556Z,99469.25
2022-09-16T12:00:50.216Z,99456.16
2022-09-16T12:01:58.263Z,99460.22
2022-09-16T12:03:13.142Z,99460.28
2022-09-16T12:04:30.009Z,99452.59
2022-09-16T12:05:45.678Z,99452.84
2022-09-16T12:07:05.181Z,99447.69
2022-09-16T12:08:06.704Z,99452.28
2022-09-16T12:09:22.800Z,99450.69
2022-09-16T12:10:29.033Z,99440.50
2022-09-16T12:11:46.118Z,99451.22
2022-09-16T12:13:01.358Z,99430.13
2022-09-16T12:14:16.596Z,99443.50
2022-09-16T12:15:22.902Z,99443.38
2022-09-16T12:16:54.172Z,99442.81
2022-09-16T12:18:01.258Z,99428.78
2022-09-16T12:19:11.829Z,99430.16
2022-09-16T12:20:20.931Z,99420.34
2022-09-16T12:21:28.463Z,99428.09
2022-09-16T12:22:36.211Z,99424.59
2022-09-16T12:23:45.338Z,99436.03
2022-09-16T12:25:04.423Z,99432.25
2022-09-16T12:26:21.621Z,99420.91
2022-09-16T12:27:49.156Z,99427.09
2022-09-16T12:29:03.627Z,99428.25
2022-09-16T12:30:16.174Z,99431.44
2022-09-16T12:31:29.452Z,99419.72
2022-09-16T12:32:47.979Z,99428.00
2022-09-16T12:34:09.455Z,99431.34
2022-09-16T12:35:16.564Z,99421.91
2022-09-16T12:36:27.485Z,99414.28
2022-09-16T12:37:39.602Z,99417.44
2022-09-16T12:38:41.265Z,99418.84
2022-09-16T12:39:42.894Z,99425.56
2022-09-16T12:40:55.100Z,99433.22
2022-09-16T12:41:56.727Z,99414.59
2022-09-16T12:43:39.938Z,99421.16
2022-09-16T12:44:50.796Z,99433.38
2022-09-16T12:45:58.565Z,99420.25
2022-09-16T12:47:16.728Z,99412.25
2022-09-16T12:49:03.022Z,99405.44
2022-09-16T12:50:25.137Z,99391.47
2022-09-16T12:51:51.026Z,99409.44
2022-09-16T12:53:21.667Z,99410.53
2022-09-16T12:55:04.113Z,99410.97
2022-09-16T12:56:31.301Z,99402.06
2022-09-16T12:58:12.091Z,99407.31
2022-09-16T12:59:55.355Z,99407.38
2022-09-16T13:01:09.519Z,99399.94
2022-09-16T13:02:20.755Z,99402.06
2022-09-16T13:03:28.149Z,99397.88
2022-09-16T13:04:41.229Z,99400.19
2022-09-16T13:05:47.520Z,99401.63
2022-09-16T13:06:51.993Z,99397.94
2022-09-16T13:07:57.129Z,99383.69
2022-09-16T13:09:33.412Z,99398.09
2022-09-16T13:11:00.654Z,99395.34
2022-09-16T13:13:36.242Z,99393.91
2022-09-16T13:14:56.363Z,99392.63
2022-09-16T13:16:01.015Z,99381.84
2022-09-16T13:17:02.710Z,99391.50
2022-09-16T13:18:19.243Z,99393.72
2022-09-16T13:19:41.203Z,99379.31
2022-09-16T13:21:00.057Z,99385.91
2022-09-16T13:22:29.869Z,99385.59
2022-09-16T13:23:35.392Z,99375.56
2022-09-16T13:24:41.986Z,99382.81
2022-09-16T13:25:50.001Z,99384.00
2022-09-16T13:26:51.553Z,99385.59
2022-09-16T13:27:57.286Z,99378.22
2022-09-16T13:28:58.940Z,99380.16
2022-09-16T13:30:11.311Z,99378.19
2022-09-16T13:31:13.086Z,99380.00
2022-09-16T13:32:28.830Z,99379.47
2022-09-16T13:33:30.475Z,99375.50
2022-09-16T13:34:32.110Z,99368.53